首页
METAR-TAF:

METAR-TAF

机场 :

萨斯卡通约翰·乔治·迪芬贝克国际机场

萨斯卡通, 薩斯喀徹溫, 加拿大

纬度: 52-10N, 经度: 106-41W, 海拔: 501米

当前天气观测

该预报发布于56分钟前的11:00 UTC
风速7节,风向西南
温度 -20°C
湿度 77%
气压 1031 hPa
能見度: 24.1公里
散云层高于21000英尺

METAR: CYXE 171100Z 23007KT 15SM SCT210 M20/M23 A3046 RMK CI3 SLP369

时间: 05:56 (11:56 UTC)

预报

该预报发布于14分钟前的11:42 UTC
预报有效从17日的 12点(UTC)到 18日的 12点(UTC)
风速8节,风向西南
能見度: 10公里
散云层高于20000英尺
成为
从 17日的 14点(UTC)到 17日的 16点(UTC)
风速12节,风向西转西南
成为
从 18日的 00点(UTC)到 18日的 02点(UTC)
风速5节,风向西转西南
从 18日的 0600点(UTC)
风速3节,风向多变
能見度: 10公里
少量云层高于1200英尺
多云层高于16000英尺
从 18日的 1000点(UTC)
风速5节,风向东北
能見度: 10公里
散云层高于1200英尺
多云层高于10000英尺
短暂存在
从 18日的 10点(UTC)到 18日的 12点(UTC)
能見度: 8.0公里
多云层高于1200英尺
阴天层高于10000英尺
小雪

TAF: CYXE 171142Z 1712/1812 23008KT P6SM SCT200 BECMG 1714/1716 24012KT BECMG 1800/1802 24005KT FM180600 VRB03KT P6SM FEW012 BKN160 FM181000 05005KT P6SM SCT012 BKN100 TEMPO 1810/1812 5SM -SN BKN012 OVC100 RMK NXT FCST BY 171800Z

超过4000个机场的气象观测和天气预报(METAR&TAF报告)。

可查询的气象台以黄色和红色小点在地图上表示。

将鼠标移到小点上方,可查看气象台名称。

然后点击查看天气观测和预报。

如需切换地图:点击带黑十字的绿色按钮放大地图;点击带横线的绿色按钮缩小地图;或者点击绿色箭头查看邻近地区的地图。


METAR-TAF: